Time;durP1;ratioP1;P1;durP2;ratioP2;P2;SDS_P1;SDS_P2;PMS_P1;PMS_P2;Temp;Humidity;BMP_temperature;BMP_pressure;BME280_temperature;BME280_humidity;BME280_pressure;Samples;Min_cycle;Max_cycle;Signal;HPM_P1;HPM_P2
2022/07/07 00:01:39;;;;;;;7.45;2.00;;;;;;;;;;5031791;28;20041;-62
2022/07/07 00:04:05;;;;;;;6.10;2.20;;;;;;;;;;5033140;28;20064;-61
2022/07/07 00:06:30;;;;;;;5.13;2.40;;;;;;;;;;5032704;28;20036;-61
2022/07/07 00:08:56;;;;;;;4.30;2.40;;;;;;;;;;5031892;28;20029;-61
2022/07/07 00:11:23;;;;;;;5.53;2.42;;;;;;;;;;5012411;28;20502;-62
2022/07/07 00:13:49;;;;;;;4.80;2.40;;;;;;;;;;5034264;28;20034;-61
2022/07/07 00:16:14;;;;;;;5.03;2.53;;;;;;;;;;5031129;28;20032;-62
2022/07/07 00:18:40;;;;;;;5.70;2.70;;;;;;;;;;5033215;28;20041;-62
2022/07/07 00:21:05;;;;;;;7.00;2.67;;;;;;;;;;5032641;28;20029;-61
2022/07/07 00:23:31;;;;;;;5.53;2.60;;;;;;;;;;5032157;28;20025;-61
2022/07/07 00:25:57;;;;;;;3.83;2.10;;;;;;;;;;5030652;28;20030;-60
2022/07/07 00:28:22;;;;;;;6.18;2.42;;;;;;;;;;5033015;28;20033;-61
2022/07/07 00:30:48;;;;;;;4.40;2.15;;;;;;;;;;5031527;28;20036;-61
2022/07/07 00:33:14;;;;;;;4.10;2.30;;;;;;;;;;5032385;28;20116;-61
2022/07/07 00:35:40;;;;;;;4.88;2.10;;;;;;;;;;5030326;28;20108;-61
2022/07/07 00:38:06;;;;;;;5.05;2.50;;;;;;;;;;5014760;28;20558;-60
2022/07/07 00:40:31;;;;;;;4.60;2.55;;;;;;;;;;5026349;28;20043;-60
2022/07/07 00:42:57;;;;;;;3.03;2.30;;;;;;;;;;5032923;28;20033;-60
2022/07/07 00:45:24;;;;;;;4.80;2.60;;;;;;;;;;5015522;28;20041;-60
2022/07/07 00:47:49;;;;;;;5.38;2.42;;;;;;;;;;5033314;28;20030;-60
2022/07/07 00:50:14;;;;;;;4.38;2.40;;;;;;;;;;5012892;28;20032;-61
2022/07/07 00:52:40;;;;;;;7.43;2.35;;;;;;;;;;5031189;28;20037;-61
2022/07/07 00:55:08;;;;;;;5.20;2.30;;;;;;;;;;5030452;28;20036;-61
2022/07/07 00:57:34;;;;;;;4.57;2.72;;;;;;;;;;5016401;28;20496;-61
2022/07/07 01:00:04;;;;;;;4.78;2.40;;;;;;;;;;5031020;28;20034;-61
2022/07/07 01:02:30;;;;;;;5.07;2.20;;;;;;;;;;5010735;28;20041;-60
2022/07/07 01:04:58;;;;;;;5.25;2.30;;;;;;;;;;5016957;28;20306;-60
2022/07/07 01:07:24;;;;;;;3.53;2.15;;;;;;;;;;5031585;28;20045;-60
2022/07/07 01:09:51;;;;;;;5.78;2.40;;;;;;;;;;5029484;28;20029;-60
2022/07/07 01:12:16;;;;;;;4.30;2.20;;;;;;;;;;5031885;28;20484;-61
2022/07/07 01:14:41;;;;;;;4.22;2.15;;;;;;;;;;5028399;28;20037;-60
2022/07/07 01:17:07;;;;;;;3.72;2.03;;;;;;;;;;5013613;28;20029;-60
2022/07/07 01:19:32;;;;;;;3.08;2.00;;;;;;;;;;5012485;28;20675;-62
2022/07/07 01:22:01;;;;;;;3.40;2.10;;;;;;;;;;5016606;28;20025;-63
2022/07/07 01:24:28;;;;;;;4.63;1.95;;;;;;;;;;5024450;28;20060;-62
2022/07/07 01:27:13;;;;;;;4.63;2.00;;;;;;;;;;5021961;28;20095;-61
2022/07/07 01:29:41;;;;;;;3.30;1.95;;;;;;;;;;5029391;28;20022;-62
2022/07/07 01:32:08;;;;;;;3.40;1.92;;;;;;;;;;5019518;28;20034;-61
2022/07/07 01:34:35;;;;;;;3.50;2.00;;;;;;;;;;5012195;28;20489;-61
2022/07/07 01:37:00;;;;;;;4.32;1.80;;;;;;;;;;5021225;28;20083;-61
2022/07/07 01:39:26;;;;;;;4.22;2.00;;;;;;;;;;5012195;28;20033;-62
2022/07/07 01:41:51;;;;;;;4.38;1.80;;;;;;;;;;5023009;28;20037;-62
2022/07/07 01:44:16;;;;;;;5.28;2.60;;;;;;;;;;5030571;28;20109;-62
2022/07/07 01:46:42;;;;;;;5.07;2.20;;;;;;;;;;5025915;28;20056;-61
2022/07/07 01:49:07;;;;;;;2.72;2.08;;;;;;;;;;5031827;28;20041;-61
2022/07/07 01:51:33;;;;;;;5.45;2.22;;;;;;;;;;5029789;28;20636;-61
2022/07/07 01:53:58;;;;;;;3.85;2.40;;;;;;;;;;5032422;28;20108;-62
2022/07/07 01:56:24;;;;;;;4.70;2.20;;;;;;;;;;5024229;28;20029;-61
2022/07/07 01:58:49;;;;;;;4.10;2.50;;;;;;;;;;5031679;28;20036;-61
2022/07/07 02:01:14;;;;;;;3.15;2.33;;;;;;;;;;5029086;28;20033;-62
2022/07/07 02:03:40;;;;;;;4.03;2.50;;;;;;;;;;5014358;28;20030;-61
2022/07/07 02:06:05;;;;;;;5.68;2.80;;;;;;;;;;5016868;28;20371;-61
2022/07/07 02:08:31;;;;;;;4.80;2.92;;;;;;;;;;5013540;28;20105;-62
2022/07/07 02:11:14;;;;;;;5.80;2.80;;;;;;;;;;5027017;28;20038;-62
2022/07/07 02:13:48;;;;;;;6.15;3.20;;;;;;;;;;5011997;28;20026;-61
2022/07/07 02:16:15;;;;;;;5.93;3.50;;;;;;;;;;5016965;28;20033;-61
2022/07/07 02:18:42;;;;;;;7.13;3.45;;;;;;;;;;5021812;28;20037;-61
2022/07/07 02:21:09;;;;;;;6.75;3.80;;;;;;;;;;5029249;28;20029;-61
2022/07/07 02:23:36;;;;;;;6.65;3.92;;;;;;;;;;5028170;28;20292;-61
2022/07/07 02:26:01;;;;;;;8.13;3.88;;;;;;;;;;5030376;28;20053;-61
2022/07/07 02:28:27;;;;;;;7.80;4.25;;;;;;;;;;5029399;28;20103;-62
2022/07/07 02:30:57;;;;;;;10.13;4.07;;;;;;;;;;5013312;28;20406;-61
2022/07/07 02:33:23;;;;;;;9.75;4.20;;;;;;;;;;5021930;28;20053;-62
2022/07/07 02:35:49;;;;;;;13.15;4.95;;;;;;;;;;5013078;28;20139;-62
2022/07/07 02:38:15;;;;;;;7.88;4.30;;;;;;;;;;5031447;28;20037;-62
2022/07/07 02:40:41;;;;;;;11.85;4.70;;;;;;;;;;5029032;28;20032;-62
2022/07/07 02:43:12;;;;;;;7.25;4.70;;;;;;;;;;5030712;28;20037;-61
2022/07/07 02:45:38;;;;;;;;;;;;;;;;;;5030248;28;20022;-62
2022/07/07 02:48:04;;;;;;;9.02;4.53;;;;;;;;;;5016064;28;19924;-61
2022/07/07 02:50:29;;;;;;;9.00;4.85;;;;;;;;;;5028348;28;20045;-62
2022/07/07 02:52:54;;;;;;;8.77;4.88;;;;;;;;;;5026184;28;20033;-61
2022/07/07 02:55:20;;;;;;;10.48;4.88;;;;;;;;;;5028105;28;20025;-62
2022/07/07 02:57:45;;;;;;;7.93;4.78;;;;;;;;;;5030509;28;20045;-61
2022/07/07 03:00:11;;;;;;;9.85;5.38;;;;;;;;;;5029638;28;20071;-61
2022/07/07 03:02:36;;;;;;;7.97;5.05;;;;;;;;;;5029657;28;20064;-61
2022/07/07 03:05:02;;;;;;;11.00;5.30;;;;;;;;;;5029890;28;20034;-61
2022/07/07 03:07:27;;;;;;;9.98;5.30;;;;;;;;;;5030067;28;20029;-62
2022/07/07 03:09:53;;;;;;;11.75;5.80;;;;;;;;;;5030202;28;20189;-61
2022/07/07 03:12:18;;;;;;;9.93;5.90;;;;;;;;;;5030565;28;20462;-61
2022/07/07 03:14:44;;;;;;;9.73;6.15;;;;;;;;;;5028540;28;20036;-61
2022/07/07 03:17:09;;;;;;;12.68;6.97;;;;;;;;;;5024815;28;20386;-61
2022/07/07 03:19:35;;;;;;;12.25;6.75;;;;;;;;;;5028753;28;20037;-61
2022/07/07 03:22:03;;;;;;;8.88;6.05;;;;;;;;;;5031551;28;20091;-61
2022/07/07 03:24:29;;;;;;;12.20;6.75;;;;;;;;;;5029495;28;20116;-61
2022/07/07 03:26:55;;;;;;;10.60;6.45;;;;;;;;;;5029305;28;20035;-61
2022/07/07 03:29:21;;;;;;;11.23;6.43;;;;;;;;;;5028668;28;20029;-62
2022/07/07 03:31:46;;;;;;;11.93;7.45;;;;;;;;;;5031081;28;20033;-62
2022/07/07 03:34:11;;;;;;;16.48;9.13;;;;;;;;;;5031727;28;20037;-63
2022/07/07 03:36:37;;;;;;;13.55;9.20;;;;;;;;;;5034265;28;20095;-63
2022/07/07 03:39:03;;;;;;;19.27;10.95;;;;;;;;;;5034731;28;20068;-64
2022/07/07 03:41:28;;;;;;;16.48;10.93;;;;;;;;;;5028717;28;20457;-63
2022/07/07 03:43:53;;;;;;;19.80;11.30;;;;;;;;;;5034429;28;20447;-63
2022/07/07 03:46:19;;;;;;;25.23;11.13;;;;;;;;;;5034591;28;20024;-63
2022/07/07 03:48:44;;;;;;;15.88;10.73;;;;;;;;;;5030944;28;20513;-63
2022/07/07 03:51:10;;;;;;;16.95;11.55;;;;;;;;;;5034684;28;20109;-63
2022/07/07 03:53:35;;;;;;;18.25;12.13;;;;;;;;;;5010985;28;20459;-63
2022/07/07 03:56:01;;;;;;;19.13;11.90;;;;;;;;;;5030981;28;20037;-63
2022/07/07 03:58:26;;;;;;;17.88;11.77;;;;;;;;;;5030511;28;20060;-64
2022/07/07 04:00:51;;;;;;;18.33;11.80;;;;;;;;;;5034643;28;20037;-63
2022/07/07 04:03:17;;;;;;;20.27;12.20;;;;;;;;;;5034327;28;20060;-63
2022/07/07 04:05:42;;;;;;;19.08;11.85;;;;;;;;;;5033818;28;20026;-63
2022/07/07 04:08:08;;;;;;;16.13;11.15;;;;;;;;;;5032881;28;20045;-63
2022/07/07 04:10:33;;;;;;;19.85;11.40;;;;;;;;;;5032694;28;20034;-63
2022/07/07 04:12:59;;;;;;;20.17;11.38;;;;;;;;;;5029312;28;20032;-63
2022/07/07 04:15:24;;;;;;;21.95;11.55;;;;;;;;;;5033701;28;20486;-63
2022/07/07 04:17:49;;;;;;;22.40;12.45;;;;;;;;;;5032967;28;20025;-63
2022/07/07 04:20:15;;;;;;;19.23;11.73;;;;;;;;;;5013837;28;20038;-64
2022/07/07 04:22:40;;;;;;;20.95;12.98;;;;;;;;;;5026597;28;20057;-64
2022/07/07 04:25:06;;;;;;;18.05;11.73;;;;;;;;;;5029587;28;20112;-64
2022/07/07 04:27:32;;;;;;;19.17;11.93;;;;;;;;;;5012716;28;20116;-64
2022/07/07 04:29:57;;;;;;;18.08;10.98;;;;;;;;;;5026178;28;20569;-64
2022/07/07 04:32:22;;;;;;;17.98;12.15;;;;;;;;;;5033947;28;20037;-64
2022/07/07 04:34:48;;;;;;;20.73;11.82;;;;;;;;;;5032076;28;20459;-64
2022/07/07 04:37:13;;;;;;;19.83;11.27;;;;;;;;;;5026627;28;20025;-64
2022/07/07 04:39:38;;;;;;;17.75;11.35;;;;;;;;;;5032580;28;20482;-64
2022/07/07 04:42:05;;;;;;;18.83;11.43;;;;;;;;;;5033266;28;20409;-66
2022/07/07 04:44:30;;;;;;;22.88;12.25;;;;;;;;;;5032281;28;20042;-66
2022/07/07 04:46:55;;;;;;;18.35;12.63;;;;;;;;;;5033080;28;20038;-66
2022/07/07 04:49:21;;;;;;;23.90;13.23;;;;;;;;;;5032478;28;20103;-66
2022/07/07 04:51:48;;;;;;;23.50;13.45;;;;;;;;;;5028111;28;20398;-66
2022/07/07 04:54:13;;;;;;;22.30;13.50;;;;;;;;;;5031848;28;20124;-65
2022/07/07 04:56:40;;;;;;;24.48;13.38;;;;;;;;;;5019422;28;20065;-65
2022/07/07 04:59:06;;;;;;;17.15;11.02;;;;;;;;;;5021052;28;20033;-66
2022/07/07 05:01:31;;;;;;;18.75;11.80;;;;;;;;;;5029899;28;20450;-65
2022/07/07 05:03:57;;;;;;;16.33;10.23;;;;;;;;;;5012517;28;20108;-66
2022/07/07 05:06:22;;;;;;;14.82;9.80;;;;;;;;;;5026614;28;20060;-66
2022/07/07 05:08:48;;;;;;;13.13;9.45;;;;;;;;;;5032080;28;20041;-68
2022/07/07 05:11:13;;;;;;;15.35;9.98;;;;;;;;;;5032744;28;20136;-65
2022/07/07 05:13:38;;;;;;;14.25;10.25;;;;;;;;;;5026651;28;20108;-65
2022/07/07 05:16:05;;;;;;;12.75;9.02;;;;;;;;;;5033367;28;20059;-65
2022/07/07 05:18:31;;;;;;;16.02;9.20;;;;;;;;;;5031598;28;20029;-64
2022/07/07 05:20:57;;;;;;;14.88;9.45;;;;;;;;;;5033165;28;20039;-65
2022/07/07 05:23:25;;;;;;;10.35;7.57;;;;;;;;;;5030464;28;20442;-65
2022/07/07 05:25:51;;;;;;;11.13;7.68;;;;;;;;;;5028151;28;20483;-66
2022/07/07 05:28:17;;;;;;;9.75;6.25;;;;;;;;;;5031583;28;20459;-66
2022/07/07 05:30:42;;;;;;;8.35;5.93;;;;;;;;;;5028196;28;20044;-67
2022/07/07 05:33:08;;;;;;;9.32;5.93;;;;;;;;;;5031995;28;20033;-69
2022/07/07 05:35:34;;;;;;;9.65;6.00;;;;;;;;;;5026425;28;20512;-66
2022/07/07 05:38:01;;;;;;;9.40;5.60;;;;;;;;;;5030281;28;20042;-67
2022/07/07 05:40:27;;;;;;;7.28;5.70;;;;;;;;;;5013973;28;20037;-64
2022/07/07 05:42:52;;;;;;;7.18;4.13;;;;;;;;;;5024909;28;20037;-69
2022/07/07 05:45:19;;;;;;;6.75;4.85;;;;;;;;;;5031949;28;20033;-68
2022/07/07 05:47:44;;;;;;;7.38;4.82;;;;;;;;;;5028131;28;20056;-68
2022/07/07 05:50:10;;;;;;;7.90;4.78;;;;;;;;;;5031189;28;20441;-66
2022/07/07 05:52:35;;;;;;;7.95;5.50;;;;;;;;;;5023752;28;20490;-65
2022/07/07 05:55:01;;;;;;;7.72;5.10;;;;;;;;;;5027898;28;20021;-67
2022/07/07 05:57:26;;;;;;;8.60;5.07;;;;;;;;;;5026090;28;20497;-62
2022/07/07 05:59:51;;;;;;;9.18;5.50;;;;;;;;;;5028975;28;20034;-68
2022/07/07 06:02:17;;;;;;;8.52;4.90;;;;;;;;;;5031806;28;20061;-67
2022/07/07 06:04:42;;;;;;;6.72;4.80;;;;;;;;;;5020493;28;20577;-67
2022/07/07 06:07:07;;;;;;;6.93;5.05;;;;;;;;;;5012177;28;20041;-67
2022/07/07 06:09:33;;;;;;;7.50;5.18;;;;;;;;;;5023122;28;20025;-66
2022/07/07 06:11:58;;;;;;;9.07;5.50;;;;;;;;;;5030828;28;20466;-67
2022/07/07 06:14:24;;;;;;;8.57;5.80;;;;;;;;;;5027276;28;20032;-66
2022/07/07 06:16:49;;;;;;;9.60;5.88;;;;;;;;;;5029765;28;20581;-68
2022/07/07 06:19:15;;;;;;;6.50;5.40;;;;;;;;;;5031470;28;20056;-67
2022/07/07 06:21:41;;;;;;;8.48;5.38;;;;;;;;;;5030779;28;20532;-66
2022/07/07 06:24:08;;;;;;;11.18;6.00;;;;;;;;;;5024805;28;20033;-65
2022/07/07 06:26:34;;;;;;;6.88;4.13;;;;;;;;;;5029821;28;20501;-66
2022/07/07 06:28:59;;;;;;;7.15;5.43;;;;;;;;;;5031059;28;20374;-69
2022/07/07 06:31:25;;;;;;;7.53;4.95;;;;;;;;;;5031895;28;20036;-68
2022/07/07 06:33:50;;;;;;;6.78;4.88;;;;;;;;;;5029545;28;20104;-67
2022/07/07 06:36:16;;;;;;;7.07;3.72;;;;;;;;;;5031253;28;20501;-66
2022/07/07 06:38:41;;;;;;;6.30;3.85;;;;;;;;;;5027354;28;20033;-66
2022/07/07 06:41:07;;;;;;;4.88;3.75;;;;;;;;;;5031789;28;20147;-67
2022/07/07 06:43:32;;;;;;;4.38;3.47;;;;;;;;;;5029518;28;20061;-67
2022/07/07 06:45:58;;;;;;;5.28;3.33;;;;;;;;;;5031636;28;20037;-68
2022/07/07 06:48:23;;;;;;;4.95;3.42;;;;;;;;;;5029669;28;20067;-67
2022/07/07 06:50:49;;;;;;;4.82;3.08;;;;;;;;;;5030796;28;20026;-71
2022/07/07 06:53:15;;;;;;;7.50;3.30;;;;;;;;;;5029417;28;20029;-66
2022/07/07 06:55:41;;;;;;;7.13;2.60;;;;;;;;;;5028044;28;20430;-67
2022/07/07 06:58:07;;;;;;;3.85;2.90;;;;;;;;;;5027836;28;20068;-69
2022/07/07 07:00:33;;;;;;;3.33;2.50;;;;;;;;;;5030531;28;20037;-68
2022/07/07 07:02:58;;;;;;;4.28;2.67;;;;;;;;;;5030651;28;20029;-68
2022/07/07 07:05:24;;;;;;;2.90;1.30;;;;;;;;;;5031382;28;20069;-68
2022/07/07 07:07:50;;;;;;;3.45;1.30;;;;;;;;;;5024618;28;20660;-66
2022/07/07 07:10:16;;;;;;;3.53;1.30;;;;;;;;;;5035373;28;20119;-65
2022/07/07 07:12:42;;;;;;;3.65;1.58;;;;;;;;;;5030536;28;20040;-66
2022/07/07 07:15:08;;;;;;;5.00;1.50;;;;;;;;;;5034414;28;20039;-66
2022/07/07 07:17:34;;;;;;;4.18;1.42;;;;;;;;;;5030439;28;20046;-66
2022/07/07 07:19:59;;;;;;;3.10;1.58;;;;;;;;;;5027392;28;20060;-67
2022/07/07 07:22:25;;;;;;;4.13;1.52;;;;;;;;;;5034544;28;20037;-66
2022/07/07 07:24:51;;;;;;;3.70;1.50;;;;;;;;;;5027620;28;20109;-66
2022/07/07 07:27:16;;;;;;;5.75;1.50;;;;;;;;;;5018829;28;20437;-66
2022/07/07 07:29:42;;;;;;;3.97;1.50;;;;;;;;;;5033862;28;20029;-67
2022/07/07 07:32:08;;;;;;;5.60;1.60;;;;;;;;;;5034477;28;20033;-64
2022/07/07 07:34:34;;;;;;;3.67;1.50;;;;;;;;;;5033027;28;20041;-63
2022/07/07 07:37:00;;;;;;;6.18;2.70;;;;;;;;;;5035196;28;20017;-67
2022/07/07 07:39:25;;;;;;;2.40;1.42;;;;;;;;;;5031387;28;20052;-70
2022/07/07 07:41:51;;;;;;;4.43;1.50;;;;;;;;;;5024237;28;20621;-68
2022/07/07 07:45:09;;;;;;;6.10;1.90;;;;;;;;;;5017929;28;20022;-65
2022/07/07 07:47:01;;;;;;;7.35;1.85;;;;;;;;;;5031453;28;20115;-67
2022/07/07 07:49:27;;;;;;;6.70;1.52;;;;;;;;;;5034820;28;20069;-69
2022/07/07 07:51:52;;;;;;;8.43;1.80;;;;;;;;;;5031316;28;20045;-68
2022/07/07 07:54:18;;;;;;;5.03;1.70;;;;;;;;;;5034829;28;20033;-69
2022/07/07 07:56:43;;;;;;;10.38;2.17;;;;;;;;;;5032748;28;20453;-68
2022/07/07 07:59:08;;;;;;;7.93;2.28;;;;;;;;;;5015907;28;20042;-67
2022/07/07 08:01:34;;;;;;;5.35;2.50;;;;;;;;;;5020983;28;20386;-62
2022/07/07 08:03:59;;;;;;;5.40;1.60;;;;;;;;;;5033614;28;20033;-65
2022/07/07 08:06:24;;;;;;;5.88;1.80;;;;;;;;;;5031073;28;20068;-64
2022/07/07 08:08:50;;;;;;;4.43;1.80;;;;;;;;;;5033716;28;20068;-65
2022/07/07 08:11:15;;;;;;;4.28;1.42;;;;;;;;;;5030362;28;20030;-64
2022/07/07 08:13:41;;;;;;;4.30;1.50;;;;;;;;;;5033505;28;20128;-63
2022/07/07 08:16:06;;;;;;;1.20;1.10;;;;;;;;;;5014786;28;20113;-65
2022/07/07 08:18:32;;;;;;;4.15;1.15;;;;;;;;;;5024441;28;20546;-60
2022/07/07 08:20:57;;;;;;;6.22;1.35;;;;;;;;;;5031156;28;20037;-63
2022/07/07 08:23:23;;;;;;;2.60;1.27;;;;;;;;;;5033845;28;20129;-63
2022/07/07 08:25:48;;;;;;;7.85;1.50;;;;;;;;;;5031499;28;20041;-64
2022/07/07 08:28:14;;;;;;;2.72;1.40;;;;;;;;;;5033375;28;20079;-65
2022/07/07 08:30:39;;;;;;;5.40;1.90;;;;;;;;;;5033115;28;20378;-64
2022/07/07 08:33:05;;;;;;;4.63;1.80;;;;;;;;;;5031343;28;20083;-64
2022/07/07 08:35:31;;;;;;;4.18;1.90;;;;;;;;;;5034387;28;20068;-66
2022/07/07 08:37:56;;;;;;;7.53;2.00;;;;;;;;;;5011502;28;20061;-66
2022/07/07 08:40:22;;;;;;;7.30;2.42;;;;;;;;;;5019512;28;20108;-66
2022/07/07 08:42:48;;;;;;;4.32;2.00;;;;;;;;;;5028518;28;20044;-66
2022/07/07 08:45:13;;;;;;;6.45;1.90;;;;;;;;;;5033531;28;20433;-69
2022/07/07 08:47:39;;;;;;;8.10;2.33;;;;;;;;;;5028734;28;20045;-68
2022/07/07 08:50:05;;;;;;;5.57;2.00;;;;;;;;;;5016170;28;20454;-68
2022/07/07 08:52:31;;;;;;;5.72;1.90;;;;;;;;;;5031098;28;20097;-70
2022/07/07 08:54:57;;;;;;;8.55;2.28;;;;;;;;;;5032476;28;20112;-69
2022/07/07 08:57:23;;;;;;;6.32;1.77;;;;;;;;;;5027433;28;20117;-69
2022/07/07 08:59:49;;;;;;;4.82;1.85;;;;;;;;;;5021067;28;20041;-71
2022/07/07 09:02:14;;;;;;;6.00;1.80;;;;;;;;;;5031933;28;20087;-73
2022/07/07 09:04:40;;;;;;;4.32;1.83;;;;;;;;;;5032743;28;20041;-68
2022/07/07 09:07:06;;;;;;;7.15;1.50;;;;;;;;;;5015089;28;20037;-71
2022/07/07 09:09:37;;;;;;;4.28;1.60;;;;;;;;;;5032429;28;20156;-71
2022/07/07 09:12:04;;;;;;;4.75;1.60;;;;;;;;;;5033230;28;20029;-71
2022/07/07 09:14:39;;;;;;;3.55;1.50;;;;;;;;;;5030774;28;20108;-71
2022/07/07 09:17:36;;;;;;;6.03;1.48;;;;;;;;;;5015296;28;20116;-71
2022/07/07 09:20:09;;;;;;;4.30;1.50;;;;;;;;;;5031816;28;20045;-71
2022/07/07 09:22:54;;;;;;;4.40;1.40;;;;;;;;;;5029034;28;20029;-65
2022/07/07 09:25:25;;;;;;;5.30;1.27;;;;;;;;;;5031052;28;20037;-70
2022/07/07 09:27:53;;;;;;;3.35;1.20;;;;;;;;;;5009102;28;20030;-70
2022/07/07 09:30:27;;;;;;;3.58;1.27;;;;;;;;;;5024745;28;20068;-69
2022/07/07 09:32:52;;;;;;;8.57;1.70;;;;;;;;;;5022984;28;20053;-71
2022/07/07 09:38:22;;;;;;;3.85;1.30;;;;;;;;;;5030963;28;20039;-68
2022/07/07 09:40:52;;;;;;;4.43;1.40;;;;;;;;;;5027119;28;20073;-67
2022/07/07 09:43:18;;;;;;;4.35;1.50;;;;;;;;;;5032078;28;20413;-68
2022/07/07 09:46:05;;;;;;;4.35;1.50;;;;;;;;;;5031624;28;20044;-68
2022/07/07 09:48:31;;;;;;;1.65;1.10;;;;;;;;;;5019230;28;20068;-68
2022/07/07 09:51:20;;;;;;;3.42;1.20;;;;;;;;;;5019410;28;20034;-67
2022/07/07 09:54:05;;;;;;;2.35;1.10;;;;;;;;;;5031629;28;20030;-66
2022/07/07 09:56:39;;;;;;;2.08;1.10;;;;;;;;;;5031037;28;20490;-67
2022/07/07 09:59:10;;;;;;;2.53;1.00;;;;;;;;;;5027528;28;20112;-67
2022/07/07 10:01:38;;;;;;;2.25;0.80;;;;;;;;;;5029503;28;20068;-66
2022/07/07 10:04:08;;;;;;;2.03;0.88;;;;;;;;;;5017309;28;20026;-68
2022/07/07 10:06:36;;;;;;;3.15;0.90;;;;;;;;;;5030821;28;20490;-64
2022/07/07 10:09:06;;;;;;;1.40;0.70;;;;;;;;;;5031356;28;20106;-66
2022/07/07 10:11:43;;;;;;;2.10;0.80;;;;;;;;;;5028316;28;20505;-67
2022/07/07 10:14:29;;;;;;;2.45;0.90;;;;;;;;;;5030282;28;20386;-68
2022/07/07 10:16:55;;;;;;;2.03;0.90;;;;;;;;;;5003851;28;20046;-64
2022/07/07 10:19:25;;;;;;;1.45;0.77;;;;;;;;;;5029172;28;20049;-66
2022/07/07 10:21:53;;;;;;;1.33;1.23;;;;;;;;;;5025887;28;20540;-66
2022/07/07 10:24:22;;;;;;;1.63;1.30;;;;;;;;;;5030653;28;20033;-65
2022/07/07 10:26:51;;;;;;;2.17;1.40;;;;;;;;;;5028790;28;20040;-66
2022/07/07 10:29:17;;;;;;;2.45;1.00;;;;;;;;;;5026623;28;20034;-66
2022/07/07 10:31:51;;;;;;;3.15;1.20;;;;;;;;;;5027818;28;20071;-66
2022/07/07 10:34:16;;;;;;;2.35;1.00;;;;;;;;;;5030236;28;20041;-65
2022/07/07 10:36:51;;;;;;;2.03;1.15;;;;;;;;;;5003573;28;20041;-65
2022/07/07 10:39:20;;;;;;;3.10;1.10;;;;;;;;;;5029793;28;20152;-66
2022/07/07 10:42:17;;;;;;;1.25;1.10;;;;;;;;;;5028916;28;20036;-66
2022/07/07 10:44:53;;;;;;;2.50;1.20;;;;;;;;;;5026980;28;20021;-65
2022/07/07 10:47:19;;;;;;;3.53;1.52;;;;;;;;;;5026540;28;20021;-65
2022/07/07 10:49:46;;;;;;;4.47;1.35;;;;;;;;;;5019258;28;20046;-65
2022/07/07 10:52:17;;;;;;;2.00;1.13;;;;;;;;;;5018340;28;20037;-65
2022/07/07 10:55:00;;;;;;;1.55;1.17;;;;;;;;;;5027728;28;20029;-64
2022/07/07 10:57:29;;;;;;;2.53;1.23;;;;;;;;;;5022643;28;20401;-65
2022/07/07 11:00:03;;;;;;;1.85;1.20;;;;;;;;;;5029719;28;20037;-65
2022/07/07 11:02:44;;;;;;;1.95;1.20;;;;;;;;;;5025423;28;20470;-66
2022/07/07 11:05:10;;;;;;;2.38;1.30;;;;;;;;;;5031195;28;20076;-64
2022/07/07 11:07:36;;;;;;;2.78;1.23;;;;;;;;;;5025162;28;20068;-66
2022/07/07 11:10:09;;;;;;;5.85;1.20;;;;;;;;;;5012928;28;20087;-66
2022/07/07 11:12:35;;;;;;;2.67;1.00;;;;;;;;;;5030175;28;20219;-66
2022/07/07 11:15:20;;;;;;;3.38;1.10;;;;;;;;;;5024698;28;20490;-66
2022/07/07 11:17:48;;;;;;;2.92;1.02;;;;;;;;;;5029695;28;20026;-66
2022/07/07 11:20:16;;;;;;;2.63;1.00;;;;;;;;;;5008748;28;20029;-67
2022/07/07 11:22:49;;;;;;;1.98;0.90;;;;;;;;;;5030374;28;20041;-65
2022/07/07 11:25:19;;;;;;;3.88;1.05;;;;;;;;;;5026852;28;20030;-65
2022/07/07 11:27:46;;;;;;;1.70;1.10;;;;;;;;;;5019953;28;20065;-65
2022/07/07 11:30:12;;;;;;;1.75;1.10;;;;;;;;;;5027695;28;20034;-65
2022/07/07 11:32:39;;;;;;;1.98;1.00;;;;;;;;;;5030055;28;20029;-65
2022/07/07 11:35:06;;;;;;;2.25;1.02;;;;;;;;;;5029155;28;20068;-65
2022/07/07 11:37:34;;;;;;;2.03;1.00;;;;;;;;;;5026791;28;20057;-66
2022/07/07 11:40:00;;;;;;;1.70;1.13;;;;;;;;;;5030283;28;20068;-66
2022/07/07 11:42:34;;;;;;;3.10;1.33;;;;;;;;;;5030238;28;20029;-65
2022/07/07 11:44:59;;;;;;;2.83;1.20;;;;;;;;;;5025314;28;20033;-65
2022/07/07 11:47:25;;;;;;;3.08;1.20;;;;;;;;;;5028110;28;20096;-66
2022/07/07 11:49:53;;;;;;;3.53;1.00;;;;;;;;;;5026765;28;20041;-66
2022/07/07 11:52:21;;;;;;;2.97;1.10;;;;;;;;;;5016995;28;20045;-67
2022/07/07 11:54:48;;;;;;;1.90;1.02;;;;;;;;;;5029977;28;20049;-64
2022/07/07 11:57:34;;;;;;;5.28;1.25;;;;;;;;;;5027307;28;20030;-65
2022/07/07 12:00:11;;;;;;;1.20;1.00;;;;;;;;;;5032076;28;20044;-65
2022/07/07 12:02:37;;;;;;;2.35;1.00;;;;;;;;;;5023636;28;20041;-66
2022/07/07 12:05:03;;;;;;;2.70;1.10;;;;;;;;;;5026328;28;20037;-64
2022/07/07 12:07:28;;;;;;;2.95;0.95;;;;;;;;;;5033582;28;20462;-66
2022/07/07 12:09:54;;;;;;;1.13;0.90;;;;;;;;;;5027601;28;20108;-64
2022/07/07 12:12:19;;;;;;;3.08;1.00;;;;;;;;;;5033670;28;20064;-64
2022/07/07 12:14:45;;;;;;;2.30;0.90;;;;;;;;;;5033152;28;20033;-64
2022/07/07 12:17:10;;;;;;;3.60;1.10;;;;;;;;;;5031147;28;20048;-66
2022/07/07 12:19:46;;;;;;;1.05;0.95;;;;;;;;;;5027875;28;20457;-67
2022/07/07 12:22:12;;;;;;;1.58;1.05;;;;;;;;;;5029462;28;20057;-65
2022/07/07 12:24:37;;;;;;;1.50;1.00;;;;;;;;;;5021159;28;20151;-66
2022/07/07 12:27:03;;;;;;;2.50;1.02;;;;;;;;;;5025630;28;20061;-64
2022/07/07 12:29:29;;;;;;;3.83;1.10;;;;;;;;;;5034151;28;20029;-65
2022/07/07 12:31:55;;;;;;;3.63;1.10;;;;;;;;;;5031715;28;20522;-65
2022/07/07 12:34:22;;;;;;;3.10;1.38;;;;;;;;;;5033642;28;20091;-65
2022/07/07 12:36:48;;;;;;;2.95;1.20;;;;;;;;;;5031978;28;20037;-65
2022/07/07 12:39:14;;;;;;;3.83;1.23;;;;;;;;;;5032798;28;20037;-64
2022/07/07 12:41:42;;;;;;;2.00;1.05;;;;;;;;;;5030452;28;20021;-65
2022/07/07 12:44:21;;;;;;;4.75;1.33;;;;;;;;;;5033640;28;20451;-64
2022/07/07 12:46:47;;;;;;;9.00;1.40;;;;;;;;;;5027604;28;20037;-66
2022/07/07 12:49:13;;;;;;;4.95;1.30;;;;;;;;;;5029093;28;20390;-65
2022/07/07 12:51:41;;;;;;;2.38;1.05;;;;;;;;;;5032155;28;20608;-65
2022/07/07 12:54:08;;;;;;;3.08;1.05;;;;;;;;;;5033898;28;20025;-63
2022/07/07 12:56:38;;;;;;;7.55;1.30;;;;;;;;;;5028089;28;20120;-62
2022/07/07 12:59:21;;;;;;;2.13;1.10;;;;;;;;;;5031336;28;20038;-63
2022/07/07 13:01:56;;;;;;;4.93;1.05;;;;;;;;;;5031783;28;20274;-65
2022/07/07 13:04:23;;;;;;;2.42;1.00;;;;;;;;;;5033497;28;20033;-65
2022/07/07 13:06:49;;;;;;;3.10;1.00;;;;;;;;;;5031273;28;20103;-66
2022/07/07 13:09:15;;;;;;;3.47;1.25;;;;;;;;;;5017526;28;20041;-64
2022/07/07 13:11:41;;;;;;;3.03;1.20;;;;;;;;;;5030593;28;20040;-65
2022/07/07 13:14:07;;;;;;;0.82;0.80;;;;;;;;;;5028927;28;20099;-63
2022/07/07 13:16:33;;;;;;;1.13;0.90;;;;;;;;;;5030292;28;20425;-64
2022/07/07 13:18:59;;;;;;;1.60;0.98;;;;;;;;;;5032335;28;20037;-62
2022/07/07 13:21:24;;;;;;;2.22;1.20;;;;;;;;;;5032110;28;20034;-63
2022/07/07 13:23:50;;;;;;;2.35;1.10;;;;;;;;;;5027271;28;20500;-65
2022/07/07 13:26:15;;;;;;;4.45;1.30;;;;;;;;;;5032867;28;20171;-63
2022/07/07 13:28:41;;;;;;;3.50;1.38;;;;;;;;;;5028117;28;20171;-64
2022/07/07 13:31:06;;;;;;;3.35;1.50;;;;;;;;;;5030486;28;20477;-65
2022/07/07 13:33:32;;;;;;;2.95;1.40;;;;;;;;;;5032891;28;20036;-62
2022/07/07 13:35:57;;;;;;;3.60;1.38;;;;;;;;;;5028857;28;20040;-65
2022/07/07 13:38:23;;;;;;;2.92;1.20;;;;;;;;;;5022576;28;20546;-66
2022/07/07 13:40:49;;;;;;;2.15;1.25;;;;;;;;;;5014332;28;20029;-64
2022/07/07 13:43:15;;;;;;;2.30;1.40;;;;;;;;;;5027079;28;20044;-65
2022/07/07 13:45:40;;;;;;;1.92;1.20;;;;;;;;;;5031431;28;20077;-64
2022/07/07 13:48:06;;;;;;;2.70;1.30;;;;;;;;;;5025187;28;20069;-63
2022/07/07 13:50:32;;;;;;;2.97;1.27;;;;;;;;;;5012222;28;20061;-65
2022/07/07 13:52:57;;;;;;;2.65;1.10;;;;;;;;;;5026454;28;20407;-65
2022/07/07 13:55:23;;;;;;;3.70;1.33;;;;;;;;;;5030139;28;20316;-65
2022/07/07 13:57:48;;;;;;;3.22;1.40;;;;;;;;;;5030238;28;20036;-64
2022/07/07 14:00:14;;;;;;;5.70;1.75;;;;;;;;;;5031338;28;20041;-62
2022/07/07 14:02:41;;;;;;;1.70;1.20;;;;;;;;;;5029432;28;20056;-63
2022/07/07 14:05:07;;;;;;;3.25;1.60;;;;;;;;;;5031935;28;20091;-64
2022/07/07 14:07:32;;;;;;;2.25;1.20;;;;;;;;;;5011751;28;20033;-64
2022/07/07 14:09:59;;;;;;;5.22;1.20;;;;;;;;;;5026359;28;20030;-64
2022/07/07 14:12:27;;;;;;;2.88;1.35;;;;;;;;;;5026506;28;20041;-64
2022/07/07 14:14:52;;;;;;;2.00;1.00;;;;;;;;;;5029457;28;20127;-65
2022/07/07 14:17:18;;;;;;;1.88;1.00;;;;;;;;;;5029797;28;20463;-64
2022/07/07 14:19:43;;;;;;;3.45;1.10;;;;;;;;;;5029921;28;20075;-65
2022/07/07 14:22:09;;;;;;;2.40;1.13;;;;;;;;;;5031886;28;20029;-63
2022/07/07 14:24:35;;;;;;;2.97;1.33;;;;;;;;;;5029540;28;20505;-63
2022/07/07 14:27:00;;;;;;;2.35;1.40;;;;;;;;;;5031263;28;20025;-64
2022/07/07 14:29:26;;;;;;;2.92;1.40;;;;;;;;;;5031585;28;20155;-64
2022/07/07 14:31:51;;;;;;;5.93;1.40;;;;;;;;;;5031250;28;20057;-63
2022/07/07 14:34:17;;;;;;;1.67;1.20;;;;;;;;;;5004973;28;20034;-64
2022/07/07 14:36:43;;;;;;;4.07;1.55;;;;;;;;;;5011218;28;20485;-63
2022/07/07 14:39:08;;;;;;;3.40;1.42;;;;;;;;;;5017629;28;20040;-61
2022/07/07 14:41:36;;;;;;;3.50;1.45;;;;;;;;;;5029679;28;20064;-65
2022/07/07 14:44:05;;;;;;;3.72;1.60;;;;;;;;;;5030275;28;20593;-62